sensor_id;sensor_type;location;lat;lon;timestamp;temperature;humidity
20670;DHT22;10494;50.868;4.180;2023-02-28T00:00:48;1.30;99.90
20670;DHT22;10494;50.868;4.180;2023-02-28T00:03:14;1.30;99.90
20670;DHT22;10494;50.868;4.180;2023-02-28T00:05:40;1.30;99.90
20670;DHT22;10494;50.868;4.180;2023-02-28T00:08:07;1.30;99.90
20670;DHT22;10494;50.868;4.180;2023-02-28T00:10:32;1.20;99.90
20670;DHT22;10494;50.868;4.180;2023-02-28T00:13:04;1.20;99.90
20670;DHT22;10494;50.868;4.180;2023-02-28T00:15:31;1.30;99.90
20670;DHT22;10494;50.868;4.180;2023-02-28T00:17:56;1.40;99.90
20670;DHT22;10494;50.868;4.180;2023-02-28T00:20:22;1.30;99.90
20670;DHT22;10494;50.868;4.180;2023-02-28T00:22:50;1.20;99.90
20670;DHT22;10494;50.868;4.180;2023-02-28T00:25:18;1.10;99.90
20670;DHT22;10494;50.868;4.180;2023-02-28T00:27:44;1.10;99.90
20670;DHT22;10494;50.868;4.180;2023-02-28T00:30:12;1.10;99.90
20670;DHT22;10494;50.868;4.180;2023-02-28T00:32:38;1.10;99.90
20670;DHT22;10494;50.868;4.180;2023-02-28T00:35:05;1.10;99.90
20670;DHT22;10494;50.868;4.180;2023-02-28T00:37:31;1.20;99.90
20670;DHT22;10494;50.868;4.180;2023-02-28T00:39:57;1.30;99.90
20670;DHT22;10494;50.868;4.180;2023-02-28T00:42:23;1.30;99.90
20670;DHT22;10494;50.868;4.180;2023-02-28T00:44:49;1.20;99.90
20670;DHT22;10494;50.868;4.180;2023-02-28T00:47:15;1.20;99.90
20670;DHT22;10494;50.868;4.180;2023-02-28T00:49:41;1.10;99.90
20670;DHT22;10494;50.868;4.180;2023-02-28T00:52:06;1.10;99.90
20670;DHT22;10494;50.868;4.180;2023-02-28T00:54:32;1.00;99.90
20670;DHT22;10494;50.868;4.180;2023-02-28T00:56:58;1.10;99.90
20670;DHT22;10494;50.868;4.180;2023-02-28T00:59:25;1.20;99.90
20670;DHT22;10494;50.868;4.180;2023-02-28T01:01:50;1.20;99.90
20670;DHT22;10494;50.868;4.180;2023-02-28T01:04:16;1.20;99.90
20670;DHT22;10494;50.868;4.180;2023-02-28T01:06:42;1.20;99.90
20670;DHT22;10494;50.868;4.180;2023-02-28T01:09:08;1.30;99.90
20670;DHT22;10494;50.868;4.180;2023-02-28T01:11:35;1.30;99.90
20670;DHT22;10494;50.868;4.180;2023-02-28T01:14:01;1.40;99.90
20670;DHT22;10494;50.868;4.180;2023-02-28T01:16:27;1.30;99.90
20670;DHT22;10494;50.868;4.180;2023-02-28T01:18:53;1.30;99.90
20670;DHT22;10494;50.868;4.180;2023-02-28T01:21:20;1.20;99.90
20670;DHT22;10494;50.868;4.180;2023-02-28T01:23:46;1.20;99.90
20670;DHT22;10494;50.868;4.180;2023-02-28T01:26:18;1.10;99.90
20670;DHT22;10494;50.868;4.180;2023-02-28T01:28:44;1.20;99.90
20670;DHT22;10494;50.868;4.180;2023-02-28T01:31:10;1.20;99.90
20670;DHT22;10494;50.868;4.180;2023-02-28T01:33:36;1.20;99.90
20670;DHT22;10494;50.868;4.180;2023-02-28T01:36:05;1.20;99.90
20670;DHT22;10494;50.868;4.180;2023-02-28T01:38:33;1.20;99.90
20670;DHT22;10494;50.868;4.180;2023-02-28T01:40:59;1.10;99.90
20670;DHT22;10494;50.868;4.180;2023-02-28T01:43:57;1.10;99.90
20670;DHT22;10494;50.868;4.180;2023-02-28T01:46:23;0.90;99.90
20670;DHT22;10494;50.868;4.180;2023-02-28T01:48:56;0.80;99.90
20670;DHT22;10494;50.868;4.180;2023-02-28T01:51:36;0.80;99.90
20670;DHT22;10494;50.868;4.180;2023-02-28T01:54:07;0.80;99.90
20670;DHT22;10494;50.868;4.180;2023-02-28T01:57:04;0.80;99.90
20670;DHT22;10494;50.868;4.180;2023-02-28T01:59:34;0.80;99.90
20670;DHT22;10494;50.868;4.180;2023-02-28T02:02:02;0.90;99.90
20670;DHT22;10494;50.868;4.180;2023-02-28T02:04:41;1.00;99.90
20670;DHT22;10494;50.868;4.180;2023-02-28T02:07:12;1.10;99.90
20670;DHT22;10494;50.868;4.180;2023-02-28T02:09:38;1.10;99.90
20670;DHT22;10494;50.868;4.180;2023-02-28T02:12:26;1.10;99.90
20670;DHT22;10494;50.868;4.180;2023-02-28T02:15:12;1.20;99.90
20670;DHT22;10494;50.868;4.180;2023-02-28T02:17:42;1.20;99.90
20670;DHT22;10494;50.868;4.180;2023-02-28T02:34:26;0.90;99.90
20670;DHT22;10494;50.868;4.180;2023-02-28T02:37:02;0.90;99.90
20670;DHT22;10494;50.868;4.180;2023-02-28T02:39:55;0.90;99.90
20670;DHT22;10494;50.868;4.180;2023-02-28T02:42:51;0.90;99.90
20670;DHT22;10494;50.868;4.180;2023-02-28T02:48:11;0.80;99.90
20670;DHT22;10494;50.868;4.180;2023-02-28T02:50:59;0.80;99.90
20670;DHT22;10494;50.868;4.180;2023-02-28T02:53:30;0.80;99.90
20670;DHT22;10494;50.868;4.180;2023-02-28T02:55:58;0.70;99.90
20670;DHT22;10494;50.868;4.180;2023-02-28T02:58:29;0.70;99.90
20670;DHT22;10494;50.868;4.180;2023-02-28T03:00:59;0.60;99.90
20670;DHT22;10494;50.868;4.180;2023-02-28T03:03:27;0.50;99.90
20670;DHT22;10494;50.868;4.180;2023-02-28T03:05:57;0.40;99.90
20670;DHT22;10494;50.868;4.180;2023-02-28T03:08:23;0.40;99.90
20670;DHT22;10494;50.868;4.180;2023-02-28T03:10:59;0.40;99.90
20670;DHT22;10494;50.868;4.180;2023-02-28T03:27:11;0.40;99.90
20670;DHT22;10494;50.868;4.180;2023-02-28T03:29:51;0.40;99.90
20670;DHT22;10494;50.868;4.180;2023-02-28T03:32:51;0.40;99.90
20670;DHT22;10494;50.868;4.180;2023-02-28T03:35:20;0.40;99.90
20670;DHT22;10494;50.868;4.180;2023-02-28T03:37:50;0.40;99.90
20670;DHT22;10494;50.868;4.180;2023-02-28T03:40:20;0.40;99.90
20670;DHT22;10494;50.868;4.180;2023-02-28T03:42:50;0.40;99.90
20670;DHT22;10494;50.868;4.180;2023-02-28T03:45:24;0.40;99.90
20670;DHT22;10494;50.868;4.180;2023-02-28T03:47:58;0.40;99.90
20670;DHT22;10494;50.868;4.180;2023-02-28T03:50:42;0.40;99.90
20670;DHT22;10494;50.868;4.180;2023-02-28T03:53:29;0.40;99.90
20670;DHT22;10494;50.868;4.180;2023-02-28T03:56:01;0.40;99.90
20670;DHT22;10494;50.868;4.180;2023-02-28T04:01:12;0.30;99.90
20670;DHT22;10494;50.868;4.180;2023-02-28T04:03:39;0.30;99.90
20670;DHT22;10494;50.868;4.180;2023-02-28T04:06:07;0.20;99.90
20670;DHT22;10494;50.868;4.180;2023-02-28T04:08:33;0.20;99.90
20670;DHT22;10494;50.868;4.180;2023-02-28T04:11:15;0.20;99.90
20670;DHT22;10494;50.868;4.180;2023-02-28T04:13:42;0.20;99.90
20670;DHT22;10494;50.868;4.180;2023-02-28T04:16:08;0.20;99.90
20670;DHT22;10494;50.868;4.180;2023-02-28T04:18:38;0.20;99.90
20670;DHT22;10494;50.868;4.180;2023-02-28T04:21:04;0.20;99.90
20670;DHT22;10494;50.868;4.180;2023-02-28T04:23:30;0.20;99.90
20670;DHT22;10494;50.868;4.180;2023-02-28T04:25:56;0.30;99.90
20670;DHT22;10494;50.868;4.180;2023-02-28T04:28:21;0.20;99.90
20670;DHT22;10494;50.868;4.180;2023-02-28T04:30:47;0.20;99.90
20670;DHT22;10494;50.868;4.180;2023-02-28T04:33:13;0.20;99.90
20670;DHT22;10494;50.868;4.180;2023-02-28T04:35:38;0.20;99.90
20670;DHT22;10494;50.868;4.180;2023-02-28T04:38:04;0.20;99.90
20670;DHT22;10494;50.868;4.180;2023-02-28T04:40:29;0.10;99.90
20670;DHT22;10494;50.868;4.180;2023-02-28T04:42:55;0.10;99.90
20670;DHT22;10494;50.868;4.180;2023-02-28T04:45:21;0.10;99.90
20670;DHT22;10494;50.868;4.180;2023-02-28T04:47:46;0.00;99.90
20670;DHT22;10494;50.868;4.180;2023-02-28T04:50:12;0.00;99.90
20670;DHT22;10494;50.868;4.180;2023-02-28T04:52:37;-0.10;99.90
20670;DHT22;10494;50.868;4.180;2023-02-28T04:55:03;0.00;99.90
20670;DHT22;10494;50.868;4.180;2023-02-28T04:57:29;0.10;99.90
20670;DHT22;10494;50.868;4.180;2023-02-28T04:59:55;0.20;99.90
20670;DHT22;10494;50.868;4.180;2023-02-28T05:02:20;0.30;99.90
20670;DHT22;10494;50.868;4.180;2023-02-28T05:04:46;0.40;99.90
20670;DHT22;10494;50.868;4.180;2023-02-28T05:07:12;0.40;99.90
20670;DHT22;10494;50.868;4.180;2023-02-28T05:09:37;0.50;99.90
20670;DHT22;10494;50.868;4.180;2023-02-28T05:12:03;0.50;99.90
20670;DHT22;10494;50.868;4.180;2023-02-28T05:14:28;0.60;99.90
20670;DHT22;10494;50.868;4.180;2023-02-28T05:16:54;0.70;99.90
20670;DHT22;10494;50.868;4.180;2023-02-28T05:19:20;0.80;99.90
20670;DHT22;10494;50.868;4.180;2023-02-28T05:21:54;0.90;99.90
20670;DHT22;10494;50.868;4.180;2023-02-28T05:24:20;1.00;99.90
20670;DHT22;10494;50.868;4.180;2023-02-28T05:26:50;1.10;99.90
20670;DHT22;10494;50.868;4.180;2023-02-28T05:29:16;1.20;99.90
20670;DHT22;10494;50.868;4.180;2023-02-28T05:31:42;1.20;99.90
20670;DHT22;10494;50.868;4.180;2023-02-28T05:34:08;1.30;99.90
20670;DHT22;10494;50.868;4.180;2023-02-28T05:36:36;1.40;99.90
20670;DHT22;10494;50.868;4.180;2023-02-28T05:39:02;1.30;99.90
20670;DHT22;10494;50.868;4.180;2023-02-28T05:41:28;1.10;99.90
20670;DHT22;10494;50.868;4.180;2023-02-28T05:43:54;0.80;99.90
20670;DHT22;10494;50.868;4.180;2023-02-28T05:46:20;0.70;99.90
20670;DHT22;10494;50.868;4.180;2023-02-28T05:48:47;0.60;99.90
20670;DHT22;10494;50.868;4.180;2023-02-28T05:51:13;0.60;99.90
20670;DHT22;10494;50.868;4.180;2023-02-28T05:53:39;0.60;99.90
20670;DHT22;10494;50.868;4.180;2023-02-28T05:56:04;0.60;99.90
20670;DHT22;10494;50.868;4.180;2023-02-28T05:58:30;0.60;99.90
20670;DHT22;10494;50.868;4.180;2023-02-28T06:01:00;0.60;99.90
20670;DHT22;10494;50.868;4.180;2023-02-28T06:03:27;0.70;99.90
20670;DHT22;10494;50.868;4.180;2023-02-28T06:05:53;0.70;99.90
20670;DHT22;10494;50.868;4.180;2023-02-28T06:08:19;0.70;99.90
20670;DHT22;10494;50.868;4.180;2023-02-28T06:10:44;0.80;99.90
20670;DHT22;10494;50.868;4.180;2023-02-28T06:13:10;1.00;99.90
20670;DHT22;10494;50.868;4.180;2023-02-28T06:15:38;1.10;99.90
20670;DHT22;10494;50.868;4.180;2023-02-28T06:18:04;1.30;99.90
20670;DHT22;10494;50.868;4.180;2023-02-28T06:20:30;1.20;99.90
20670;DHT22;10494;50.868;4.180;2023-02-28T06:22:58;1.00;99.90
20670;DHT22;10494;50.868;4.180;2023-02-28T06:25:25;0.80;99.90
20670;DHT22;10494;50.868;4.180;2023-02-28T06:27:51;0.80;99.90
20670;DHT22;10494;50.868;4.180;2023-02-28T06:30:17;0.70;99.90
20670;DHT22;10494;50.868;4.180;2023-02-28T06:32:43;0.70;99.90
20670;DHT22;10494;50.868;4.180;2023-02-28T06:35:09;0.60;99.90
20670;DHT22;10494;50.868;4.180;2023-02-28T06:37:35;0.60;99.90
20670;DHT22;10494;50.868;4.180;2023-02-28T06:40:01;0.60;99.90
20670;DHT22;10494;50.868;4.180;2023-02-28T06:42:27;0.70;99.90
20670;DHT22;10494;50.868;4.180;2023-02-28T06:44:55;0.80;99.90
20670;DHT22;10494;50.868;4.180;2023-02-28T06:47:20;1.00;99.90
20670;DHT22;10494;50.868;4.180;2023-02-28T06:49:47;1.00;99.90
20670;DHT22;10494;50.868;4.180;2023-02-28T06:52:12;0.90;99.90
20670;DHT22;10494;50.868;4.180;2023-02-28T06:54:39;1.00;99.90
20670;DHT22;10494;50.868;4.180;2023-02-28T06:57:04;0.90;99.90
20670;DHT22;10494;50.868;4.180;2023-02-28T06:59:30;0.90;99.90
20670;DHT22;10494;50.868;4.180;2023-02-28T07:01:56;1.00;99.90
20670;DHT22;10494;50.868;4.180;2023-02-28T07:04:22;1.00;99.90
20670;DHT22;10494;50.868;4.180;2023-02-28T07:06:47;1.00;99.90
20670;DHT22;10494;50.868;4.180;2023-02-28T07:09:13;1.10;99.90
20670;DHT22;10494;50.868;4.180;2023-02-28T07:11:40;1.10;99.90
20670;DHT22;10494;50.868;4.180;2023-02-28T07:14:06;1.20;99.90
20670;DHT22;10494;50.868;4.180;2023-02-28T07:16:32;1.30;99.90
20670;DHT22;10494;50.868;4.180;2023-02-28T07:18:58;1.40;99.90
20670;DHT22;10494;50.868;4.180;2023-02-28T07:21:24;1.40;99.90
20670;DHT22;10494;50.868;4.180;2023-02-28T07:23:50;1.50;99.90
20670;DHT22;10494;50.868;4.180;2023-02-28T07:26:17;1.80;99.90
20670;DHT22;10494;50.868;4.180;2023-02-28T07:28:45;2.00;99.90
20670;DHT22;10494;50.868;4.180;2023-02-28T07:31:12;2.00;99.90
20670;DHT22;10494;50.868;4.180;2023-02-28T07:33:39;1.60;99.90
20670;DHT22;10494;50.868;4.180;2023-02-28T07:36:07;1.50;99.90
20670;DHT22;10494;50.868;4.180;2023-02-28T07:38:37;1.60;99.90
20670;DHT22;10494;50.868;4.180;2023-02-28T07:41:03;2.00;99.90
20670;DHT22;10494;50.868;4.180;2023-02-28T07:43:33;2.30;99.90
20670;DHT22;10494;50.868;4.180;2023-02-28T07:46:08;2.30;99.90
20670;DHT22;10494;50.868;4.180;2023-02-28T07:48:34;2.70;99.90
20670;DHT22;10494;50.868;4.180;2023-02-28T07:50:59;3.00;99.90
20670;DHT22;10494;50.868;4.180;2023-02-28T07:53:26;3.00;99.90
20670;DHT22;10494;50.868;4.180;2023-02-28T07:55:56;2.70;99.90
20670;DHT22;10494;50.868;4.180;2023-02-28T07:58:23;2.80;99.90
20670;DHT22;10494;50.868;4.180;2023-02-28T08:00:49;3.10;99.90
20670;DHT22;10494;50.868;4.180;2023-02-28T08:03:19;3.50;99.90
20670;DHT22;10494;50.868;4.180;2023-02-28T08:05:45;3.20;99.90
20670;DHT22;10494;50.868;4.180;2023-02-28T08:08:11;3.60;99.90
20670;DHT22;10494;50.868;4.180;2023-02-28T08:10:37;3.50;99.90
20670;DHT22;10494;50.868;4.180;2023-02-28T08:13:03;3.50;99.90
20670;DHT22;10494;50.868;4.180;2023-02-28T08:15:29;4.00;99.90
20670;DHT22;10494;50.868;4.180;2023-02-28T08:17:54;3.70;99.90
20670;DHT22;10494;50.868;4.180;2023-02-28T08:20:22;4.30;99.90
20670;DHT22;10494;50.868;4.180;2023-02-28T08:22:47;5.00;99.90
20670;DHT22;10494;50.868;4.180;2023-02-28T08:25:13;4.80;99.90
20670;DHT22;10494;50.868;4.180;2023-02-28T08:27:39;4.70;99.90
20670;DHT22;10494;50.868;4.180;2023-02-28T08:30:05;5.20;99.90
20670;DHT22;10494;50.868;4.180;2023-02-28T08:32:32;6.20;99.90
20670;DHT22;10494;50.868;4.180;2023-02-28T08:34:59;5.80;99.90
20670;DHT22;10494;50.868;4.180;2023-02-28T08:37:24;4.70;99.90
20670;DHT22;10494;50.868;4.180;2023-02-28T08:39:50;4.90;99.90
20670;DHT22;10494;50.868;4.180;2023-02-28T08:42:17;5.20;99.90
20670;DHT22;10494;50.868;4.180;2023-02-28T08:44:43;5.30;99.90
20670;DHT22;10494;50.868;4.180;2023-02-28T08:47:08;5.10;99.90
20670;DHT22;10494;50.868;4.180;2023-02-28T08:49:34;5.10;99.90
20670;DHT22;10494;50.868;4.180;2023-02-28T08:51:59;5.50;99.90
20670;DHT22;10494;50.868;4.180;2023-02-28T08:54:25;6.20;99.90
20670;DHT22;10494;50.868;4.180;2023-02-28T08:56:51;7.20;99.90
20670;DHT22;10494;50.868;4.180;2023-02-28T08:59:16;6.60;99.90
20670;DHT22;10494;50.868;4.180;2023-02-28T09:01:42;6.70;99.90
20670;DHT22;10494;50.868;4.180;2023-02-28T09:04:09;7.30;99.90
20670;DHT22;10494;50.868;4.180;2023-02-28T09:06:36;7.50;99.90
20670;DHT22;10494;50.868;4.180;2023-02-28T09:09:03;8.10;99.90
20670;DHT22;10494;50.868;4.180;2023-02-28T09:11:31;8.10;98.70
20670;DHT22;10494;50.868;4.180;2023-02-28T09:13:58;8.60;97.30
20670;DHT22;10494;50.868;4.180;2023-02-28T09:16:25;8.30;94.50
20670;DHT22;10494;50.868;4.180;2023-02-28T09:18:51;6.60;97.30
20670;DHT22;10494;50.868;4.180;2023-02-28T09:21:18;7.20;97.60
20670;DHT22;10494;50.868;4.180;2023-02-28T09:23:46;7.40;96.40
20670;DHT22;10494;50.868;4.180;2023-02-28T09:26:18;8.40;94.00
20670;DHT22;10494;50.868;4.180;2023-02-28T09:28:45;8.90;91.80
20670;DHT22;10494;50.868;4.180;2023-02-28T09:31:15;9.50;89.40
20670;DHT22;10494;50.868;4.180;2023-02-28T09:33:41;9.70;84.20
20670;DHT22;10494;50.868;4.180;2023-02-28T09:36:07;9.60;80.40
20670;DHT22;10494;50.868;4.180;2023-02-28T09:38:33;9.60;83.00
20670;DHT22;10494;50.868;4.180;2023-02-28T09:41:02;9.90;79.40
20670;DHT22;10494;50.868;4.180;2023-02-28T09:43:35;9.90;76.90
20670;DHT22;10494;50.868;4.180;2023-02-28T09:48:48;8.80;80.50
20670;DHT22;10494;50.868;4.180;2023-02-28T09:54:05;9.80;77.60
20670;DHT22;10494;50.868;4.180;2023-02-28T09:56:39;9.70;77.10
20670;DHT22;10494;50.868;4.180;2023-02-28T10:01:57;9.00;79.20
20670;DHT22;10494;50.868;4.180;2023-02-28T10:04:40;9.70;80.40
20670;DHT22;10494;50.868;4.180;2023-02-28T10:10:57;10.00;71.50
20670;DHT22;10494;50.868;4.180;2023-02-28T10:13:14;10.30;73.00
20670;DHT22;10494;50.868;4.180;2023-02-28T10:15:42;10.60;72.70
20670;DHT22;10494;50.868;4.180;2023-02-28T10:18:14;10.90;69.60
20670;DHT22;10494;50.868;4.180;2023-02-28T10:20:45;10.90;66.90
20670;DHT22;10494;50.868;4.180;2023-02-28T10:26:00;10.00;65.40
20670;DHT22;10494;50.868;4.180;2023-02-28T10:28:28;9.60;67.60
20670;DHT22;10494;50.868;4.180;2023-02-28T10:30:55;9.10;70.20
20670;DHT22;10494;50.868;4.180;2023-02-28T10:33:33;8.60;72.90
20670;DHT22;10494;50.868;4.180;2023-02-28T10:36:00;8.40;73.10
20670;DHT22;10494;50.868;4.180;2023-02-28T10:38:34;8.40;73.30
20670;DHT22;10494;50.868;4.180;2023-02-28T10:41:06;8.80;73.40
20670;DHT22;10494;50.868;4.180;2023-02-28T10:43:32;8.90;71.20
20670;DHT22;10494;50.868;4.180;2023-02-28T10:48:44;8.70;73.70
20670;DHT22;10494;50.868;4.180;2023-02-28T10:51:16;8.90;72.60
20670;DHT22;10494;50.868;4.180;2023-02-28T10:58:56;9.20;69.30
20670;DHT22;10494;50.868;4.180;2023-02-28T11:01:44;9.80;70.00
20670;DHT22;10494;50.868;4.180;2023-02-28T11:06:58;9.40;64.80
20670;DHT22;10494;50.868;4.180;2023-02-28T11:09:33;8.60;68.00
20670;DHT22;10494;50.868;4.180;2023-02-28T11:12:01;8.70;67.40
20670;DHT22;10494;50.868;4.180;2023-02-28T11:14:30;8.80;68.80
20670;DHT22;10494;50.868;4.180;2023-02-28T11:17:02;9.10;68.70
20670;DHT22;10494;50.868;4.180;2023-02-28T11:19:40;9.00;65.10
20670;DHT22;10494;50.868;4.180;2023-02-28T11:22:09;8.50;64.80
20670;DHT22;10494;50.868;4.180;2023-02-28T11:24:49;7.60;66.90
20670;DHT22;10494;50.868;4.180;2023-02-28T11:29:54;7.30;69.70
20670;DHT22;10494;50.868;4.180;2023-02-28T11:32:22;7.30;69.40
20670;DHT22;10494;50.868;4.180;2023-02-28T11:37:37;6.80;70.00
20670;DHT22;10494;50.868;4.180;2023-02-28T11:40:16;6.20;71.50
20670;DHT22;10494;50.868;4.180;2023-02-28T11:45:44;6.20;75.40
20670;DHT22;10494;50.868;4.180;2023-02-28T11:48:20;6.40;75.50
20670;DHT22;10494;50.868;4.180;2023-02-28T11:53:57;6.40;74.50
20670;DHT22;10494;50.868;4.180;2023-02-28T11:56:38;6.20;73.70
20670;DHT22;10494;50.868;4.180;2023-02-28T12:05:21;6.30;75.10
20670;DHT22;10494;50.868;4.180;2023-02-28T12:13:34;5.60;77.40
20670;DHT22;10494;50.868;4.180;2023-02-28T12:16:27;5.60;77.80
20670;DHT22;10494;50.868;4.180;2023-02-28T12:24:32;6.20;75.50
20670;DHT22;10494;50.868;4.180;2023-02-28T12:27:09;6.20;74.10
20670;DHT22;10494;50.868;4.180;2023-02-28T12:32:35;6.20;75.20
20670;DHT22;10494;50.868;4.180;2023-02-28T12:35:06;6.30;76.60
20670;DHT22;10494;50.868;4.180;2023-02-28T12:40:13;5.90;77.30
20670;DHT22;10494;50.868;4.180;2023-02-28T12:42:44;5.80;76.30
20670;DHT22;10494;50.868;4.180;2023-02-28T12:45:57;5.40;76.30
20670;DHT22;10494;50.868;4.180;2023-02-28T12:48:29;5.70;78.00
20670;DHT22;10494;50.868;4.180;2023-02-28T12:50:57;5.90;77.90
20670;DHT22;10494;50.868;4.180;2023-02-28T12:56:56;6.20;75.80
20670;DHT22;10494;50.868;4.180;2023-02-28T12:59:32;5.50;74.60
20670;DHT22;10494;50.868;4.180;2023-02-28T13:08:34;5.60;78.20
20670;DHT22;10494;50.868;4.180;2023-02-28T13:10:54;5.80;77.20
20670;DHT22;10494;50.868;4.180;2023-02-28T13:13:24;5.60;76.20
20670;DHT22;10494;50.868;4.180;2023-02-28T13:16:09;5.60;77.60
20670;DHT22;10494;50.868;4.180;2023-02-28T13:18:38;5.80;76.40
20670;DHT22;10494;50.868;4.180;2023-02-28T13:21:07;6.10;77.80
20670;DHT22;10494;50.868;4.180;2023-02-28T13:26:06;5.80;76.60
20670;DHT22;10494;50.868;4.180;2023-02-28T13:31:18;6.30;76.10
20670;DHT22;10494;50.868;4.180;2023-02-28T13:49:23;6.70;71.50
20670;DHT22;10494;50.868;4.180;2023-02-28T13:51:50;6.70;71.40
20670;DHT22;10494;50.868;4.180;2023-02-28T13:58:02;6.70;71.30
20670;DHT22;10494;50.868;4.180;2023-02-28T14:06:28;6.80;70.50
20670;DHT22;10494;50.868;4.180;2023-02-28T14:09:15;6.20;70.60
20670;DHT22;10494;50.868;4.180;2023-02-28T14:11:43;6.10;70.80
20670;DHT22;10494;50.868;4.180;2023-02-28T14:19:46;6.50;71.30
20670;DHT22;10494;50.868;4.180;2023-02-28T14:25:18;6.40;72.60
20670;DHT22;10494;50.868;4.180;2023-02-28T14:28:03;6.60;72.20
20670;DHT22;10494;50.868;4.180;2023-02-28T14:33:32;6.90;69.40
20670;DHT22;10494;50.868;4.180;2023-02-28T14:39:04;6.80;67.90
20670;DHT22;10494;50.868;4.180;2023-02-28T14:41:33;6.70;69.80
20670;DHT22;10494;50.868;4.180;2023-02-28T14:44:12;6.70;69.30
20670;DHT22;10494;50.868;4.180;2023-02-28T14:46:39;6.70;70.70
20670;DHT22;10494;50.868;4.180;2023-02-28T14:49:06;6.70;69.10
20670;DHT22;10494;50.868;4.180;2023-02-28T14:51:37;6.70;69.90
20670;DHT22;10494;50.868;4.180;2023-02-28T14:54:03;6.70;70.90
20670;DHT22;10494;50.868;4.180;2023-02-28T14:56:36;6.60;71.00
20670;DHT22;10494;50.868;4.180;2023-02-28T14:59:02;6.70;70.20
20670;DHT22;10494;50.868;4.180;2023-02-28T15:01:28;6.60;71.00
20670;DHT22;10494;50.868;4.180;2023-02-28T15:04:05;6.60;71.90
20670;DHT22;10494;50.868;4.180;2023-02-28T15:06:32;6.70;72.30
20670;DHT22;10494;50.868;4.180;2023-02-28T15:09:30;6.70;71.20
20670;DHT22;10494;50.868;4.180;2023-02-28T15:11:55;6.90;70.90
20670;DHT22;10494;50.868;4.180;2023-02-28T15:14:22;6.90;70.70
20670;DHT22;10494;50.868;4.180;2023-02-28T15:16:56;6.70;70.60
20670;DHT22;10494;50.868;4.180;2023-02-28T15:19:26;6.60;72.30
20670;DHT22;10494;50.868;4.180;2023-02-28T15:22:05;6.80;72.70
20670;DHT22;10494;50.868;4.180;2023-02-28T15:24:41;6.90;71.50
20670;DHT22;10494;50.868;4.180;2023-02-28T15:27:12;6.90;71.40
20670;DHT22;10494;50.868;4.180;2023-02-28T15:29:46;6.80;70.90
20670;DHT22;10494;50.868;4.180;2023-02-28T15:32:39;6.70;71.20
20670;DHT22;10494;50.868;4.180;2023-02-28T15:35:37;6.60;71.30
20670;DHT22;10494;50.868;4.180;2023-02-28T15:38:22;6.30;71.30
20670;DHT22;10494;50.868;4.180;2023-02-28T15:40:54;6.30;73.00
20670;DHT22;10494;50.868;4.180;2023-02-28T15:43:28;6.20;73.70
20670;DHT22;10494;50.868;4.180;2023-02-28T15:46:09;6.30;73.90
20670;DHT22;10494;50.868;4.180;2023-02-28T15:48:42;6.20;73.90
20670;DHT22;10494;50.868;4.180;2023-02-28T15:53:50;6.40;75.70
20670;DHT22;10494;50.868;4.180;2023-02-28T15:56:24;6.50;73.70
20670;DHT22;10494;50.868;4.180;2023-02-28T15:58:53;6.40;74.30
20670;DHT22;10494;50.868;4.180;2023-02-28T16:01:31;6.50;74.30
20670;DHT22;10494;50.868;4.180;2023-02-28T16:04:01;6.60;75.50
20670;DHT22;10494;50.868;4.180;2023-02-28T16:09:15;6.40;76.00
20670;DHT22;10494;50.868;4.180;2023-02-28T16:11:52;6.50;75.70
20670;DHT22;10494;50.868;4.180;2023-02-28T16:14:24;6.40;76.50
20670;DHT22;10494;50.868;4.180;2023-02-28T16:16:52;6.50;76.00
20670;DHT22;10494;50.868;4.180;2023-02-28T16:19:19;6.20;77.50
20670;DHT22;10494;50.868;4.180;2023-02-28T16:21:45;6.20;76.60
20670;DHT22;10494;50.868;4.180;2023-02-28T16:24:11;6.20;77.60
20670;DHT22;10494;50.868;4.180;2023-02-28T16:26:39;6.00;77.90
20670;DHT22;10494;50.868;4.180;2023-02-28T16:29:05;5.90;78.00
20670;DHT22;10494;50.868;4.180;2023-02-28T16:31:35;5.80;77.70
20670;DHT22;10494;50.868;4.180;2023-02-28T16:34:02;5.80;78.10
20670;DHT22;10494;50.868;4.180;2023-02-28T16:36:28;5.90;77.70
20670;DHT22;10494;50.868;4.180;2023-02-28T16:38:55;5.90;76.80
20670;DHT22;10494;50.868;4.180;2023-02-28T16:41:26;5.90;77.50
20670;DHT22;10494;50.868;4.180;2023-02-28T16:43:55;5.90;77.60
20670;DHT22;10494;50.868;4.180;2023-02-28T16:46:25;5.90;78.40
20670;DHT22;10494;50.868;4.180;2023-02-28T16:48:52;5.70;78.50
20670;DHT22;10494;50.868;4.180;2023-02-28T16:51:18;5.60;78.70
20670;DHT22;10494;50.868;4.180;2023-02-28T16:53:44;5.60;79.30
20670;DHT22;10494;50.868;4.180;2023-02-28T16:56:15;5.70;78.20
20670;DHT22;10494;50.868;4.180;2023-02-28T16:58:41;5.70;78.40
20670;DHT22;10494;50.868;4.180;2023-02-28T17:01:07;5.70;79.30
20670;DHT22;10494;50.868;4.180;2023-02-28T17:03:32;5.60;79.10
20670;DHT22;10494;50.868;4.180;2023-02-28T17:05:58;5.60;79.90
20670;DHT22;10494;50.868;4.180;2023-02-28T17:08:24;5.50;80.20
20670;DHT22;10494;50.868;4.180;2023-02-28T17:10:50;5.50;80.80
20670;DHT22;10494;50.868;4.180;2023-02-28T17:13:15;5.40;80.80
20670;DHT22;10494;50.868;4.180;2023-02-28T17:15:41;5.50;81.30
20670;DHT22;10494;50.868;4.180;2023-02-28T17:18:09;5.40;81.40
20670;DHT22;10494;50.868;4.180;2023-02-28T17:20:38;5.30;82.20
20670;DHT22;10494;50.868;4.180;2023-02-28T17:23:04;5.30;82.90
20670;DHT22;10494;50.868;4.180;2023-02-28T17:25:30;5.20;83.40
20670;DHT22;10494;50.868;4.180;2023-02-28T17:27:55;5.20;83.90
20670;DHT22;10494;50.868;4.180;2023-02-28T17:30:24;5.00;84.80
20670;DHT22;10494;50.868;4.180;2023-02-28T17:32:50;5.00;85.70
20670;DHT22;10494;50.868;4.180;2023-02-28T17:35:15;5.00;85.80
20670;DHT22;10494;50.868;4.180;2023-02-28T17:37:41;4.90;86.40
20670;DHT22;10494;50.868;4.180;2023-02-28T17:40:14;5.00;86.80
20670;DHT22;10494;50.868;4.180;2023-02-28T17:42:40;4.90;87.50
20670;DHT22;10494;50.868;4.180;2023-02-28T17:45:06;4.80;88.20
20670;DHT22;10494;50.868;4.180;2023-02-28T17:47:32;4.70;88.60
20670;DHT22;10494;50.868;4.180;2023-02-28T17:49:57;4.60;89.40
20670;DHT22;10494;50.868;4.180;2023-02-28T17:52:23;4.50;90.00
20670;DHT22;10494;50.868;4.180;2023-02-28T17:54:49;4.30;90.50
20670;DHT22;10494;50.868;4.180;2023-02-28T17:57:15;4.30;91.00
20670;DHT22;10494;50.868;4.180;2023-02-28T17:59:41;4.20;91.40
20670;DHT22;10494;50.868;4.180;2023-02-28T18:02:12;4.10;91.70
20670;DHT22;10494;50.868;4.180;2023-02-28T18:04:38;4.10;92.40
20670;DHT22;10494;50.868;4.180;2023-02-28T18:07:05;4.00;92.70
20670;DHT22;10494;50.868;4.180;2023-02-28T18:09:31;4.10;93.10
20670;DHT22;10494;50.868;4.180;2023-02-28T18:11:57;4.00;93.60
20670;DHT22;10494;50.868;4.180;2023-02-28T18:14:24;3.90;94.20
20670;DHT22;10494;50.868;4.180;2023-02-28T18:16:51;3.90;94.60
20670;DHT22;10494;50.868;4.180;2023-02-28T18:19:18;3.80;94.90
20670;DHT22;10494;50.868;4.180;2023-02-28T18:21:48;3.70;95.30
20670;DHT22;10494;50.868;4.180;2023-02-28T18:24:16;3.70;95.70
20670;DHT22;10494;50.868;4.180;2023-02-28T18:26:43;3.70;96.20
20670;DHT22;10494;50.868;4.180;2023-02-28T18:29:16;3.60;96.70
20670;DHT22;10494;50.868;4.180;2023-02-28T18:31:42;3.50;97.60